createdAt,value
2019-05-28T00:01:58.698Z,4.05
2019-05-28T00:04:27.936Z,3.62
2019-05-28T00:06:57.156Z,3.33
2019-05-28T00:09:26.380Z,4.47
2019-05-28T00:11:55.805Z,4.10
2019-05-28T00:14:25.141Z,3.55
2019-05-28T00:16:54.509Z,3.50
2019-05-28T00:19:23.737Z,3.80
2019-05-28T00:21:52.960Z,3.50
2019-05-28T00:24:22.161Z,3.93
2019-05-28T00:26:51.429Z,4.58
2019-05-28T00:29:20.875Z,4.77
2019-05-28T00:31:50.147Z,3.85
2019-05-28T00:34:19.359Z,4.47
2019-05-28T00:36:48.562Z,4.03
2019-05-28T00:39:17.832Z,3.37
2019-05-28T00:41:47.129Z,3.77
2019-05-28T00:44:16.436Z,3.90
2019-05-28T00:46:45.656Z,4.00
2019-05-28T00:49:14.957Z,4.50
2019-05-28T00:51:44.420Z,4.17
2019-05-28T00:54:13.664Z,5.62
2019-05-28T00:56:43.560Z,4.55
2019-05-28T00:59:13.160Z,4.47
2019-05-28T01:01:42.384Z,4.15
2019-05-28T01:04:11.768Z,4.17
2019-05-28T01:06:41.002Z,5.75
2019-05-28T01:09:10.281Z,5.60
2019-05-28T01:11:39.632Z,4.75
2019-05-28T01:14:08.966Z,5.40
2019-05-28T01:16:38.189Z,6.55
2019-05-28T01:19:07.515Z,4.60
2019-05-28T01:21:36.743Z,5.62
2019-05-28T01:24:06.047Z,5.40
2019-05-28T01:26:35.247Z,5.03
2019-05-28T01:29:04.631Z,5.75
2019-05-28T01:31:33.884Z,4.45
2019-05-28T01:34:03.040Z,5.65
2019-05-28T01:36:32.253Z,5.75
2019-05-28T01:39:01.488Z,4.67
2019-05-28T01:41:30.640Z,6.60
2019-05-28T01:43:59.841Z,6.90
2019-05-28T01:46:29.185Z,5.33
2019-05-28T01:48:58.360Z,5.20
2019-05-28T01:51:27.701Z,6.50
2019-05-28T01:53:56.975Z,5.10
2019-05-28T01:56:26.267Z,5.73
2019-05-28T01:58:55.665Z,5.87
2019-05-28T02:01:24.934Z,5.42
2019-05-28T02:03:54.115Z,6.12
2019-05-28T02:06:23.381Z,8.23
2019-05-28T02:08:52.702Z,6.17
2019-05-28T02:11:21.968Z,7.50
2019-05-28T02:13:51.162Z,6.22
2019-05-28T02:16:20.357Z,6.92
2019-05-28T02:18:49.568Z,6.85
2019-05-28T02:21:18.832Z,7.58
2019-05-28T02:23:48.052Z,5.37
2019-05-28T02:26:17.385Z,6.60
2019-05-28T02:28:46.660Z,6.03
2019-05-28T02:31:27.463Z,7.25
2019-05-28T02:33:46.725Z,7.12
2019-05-28T02:36:15.913Z,6.67
2019-05-28T02:38:45.104Z,6.53
2019-05-28T02:41:14.412Z,7.17
2019-05-28T02:43:43.577Z,5.75
2019-05-28T02:46:12.777Z,7.17
2019-05-28T02:48:42.081Z,5.97
2019-05-28T02:51:12.247Z,7.15
2019-05-28T02:53:41.705Z,7.62
2019-05-28T02:56:13.852Z,6.70
2019-05-28T02:58:45.287Z,9.13
2019-05-28T03:01:14.521Z,7.22
2019-05-28T03:03:46.773Z,6.87
2019-05-28T03:06:17.472Z,7.97
2019-05-28T03:08:48.526Z,7.78
2019-05-28T03:11:17.773Z,7.03
2019-05-28T03:13:47.023Z,7.20
2019-05-28T03:16:18.052Z,8.15
2019-05-28T03:18:49.528Z,8.23
2019-05-28T03:21:19.312Z,7.00
2019-05-28T03:23:48.792Z,6.67
2019-05-28T03:26:17.965Z,8.53
2019-05-28T03:28:47.190Z,8.03
2019-05-28T03:31:16.500Z,6.83
2019-05-28T03:33:45.677Z,7.70
2019-05-28T03:36:16.749Z,7.60
2019-05-28T03:38:46.268Z,7.92
2019-05-28T03:41:15.539Z,6.43
2019-05-28T03:43:44.720Z,8.13
2019-05-28T03:46:15.388Z,8.88
2019-05-28T03:48:44.556Z,7.75
2019-05-28T03:51:13.848Z,7.17
2019-05-28T03:53:43.160Z,8.70
2019-05-28T03:56:12.346Z,8.60
2019-05-28T03:58:41.656Z,7.55
2019-05-28T04:01:10.948Z,7.58
2019-05-28T04:03:40.162Z,9.08
2019-05-28T04:06:09.390Z,9.40
2019-05-28T04:08:38.689Z,10.05
2019-05-28T04:11:07.964Z,8.03
2019-05-28T04:13:37.186Z,7.83
2019-05-28T04:16:06.456Z,8.70
2019-05-28T04:18:35.750Z,9.58
2019-05-28T04:21:04.953Z,8.28
2019-05-28T04:23:34.143Z,7.67
2019-05-28T04:26:03.354Z,8.55
2019-05-28T04:28:32.644Z,9.43
2019-05-28T04:31:01.865Z,8.63
2019-05-28T04:33:31.101Z,8.23
2019-05-28T04:36:00.522Z,9.47
2019-05-28T04:38:29.777Z,8.88
2019-05-28T04:40:58.945Z,7.97
2019-05-28T04:43:28.116Z,9.80
2019-05-28T04:45:57.342Z,8.65
2019-05-28T04:48:26.739Z,9.48
2019-05-28T04:50:56.155Z,9.03
2019-05-28T04:53:25.453Z,9.28
2019-05-28T04:55:54.648Z,8.85
2019-05-28T04:58:23.872Z,9.00
2019-05-28T05:00:53.039Z,8.40
2019-05-28T05:03:22.376Z,8.70
2019-05-28T05:05:51.630Z,9.25
2019-05-28T05:08:20.853Z,8.80
2019-05-28T05:10:50.045Z,9.25
2019-05-28T05:13:19.435Z,7.80
2019-05-28T05:15:48.632Z,10.50
2019-05-28T05:18:17.903Z,8.65
2019-05-28T05:20:47.180Z,8.83
2019-05-28T05:23:16.437Z,8.90
2019-05-28T05:25:45.634Z,7.80
2019-05-28T05:28:14.968Z,7.00
2019-05-28T05:30:44.306Z,7.55
2019-05-28T05:33:19.805Z,7.90
2019-05-28T05:35:44.487Z,7.95
2019-05-28T05:38:13.769Z,6.90
2019-05-28T05:40:43.406Z,7.10
2019-05-28T05:43:12.717Z,6.80
2019-05-28T05:45:41.875Z,8.17
2019-05-28T05:48:11.204Z,7.80
2019-05-28T05:50:40.490Z,8.15
2019-05-28T05:53:09.874Z,7.17
2019-05-28T05:55:42.064Z,7.55
2019-05-28T05:58:11.349Z,7.87
2019-05-28T06:00:40.596Z,11.95
2019-05-28T06:03:09.911Z,7.72
2019-05-28T06:05:39.246Z,7.03
2019-05-28T06:08:08.563Z,7.57
2019-05-28T06:10:37.873Z,6.70
2019-05-28T06:13:07.293Z,6.80
2019-05-28T06:15:36.610Z,6.20
2019-05-28T06:18:05.914Z,6.17
2019-05-28T06:20:35.248Z,6.55
2019-05-28T06:23:05.741Z,7.30
2019-05-28T06:25:37.270Z,7.30
2019-05-28T06:28:06.464Z,5.90
2019-05-28T06:30:35.824Z,7.23
2019-05-28T06:33:05.201Z,6.90
2019-05-28T06:35:34.476Z,6.90
2019-05-28T06:38:03.780Z,6.87
2019-05-28T06:40:32.982Z,7.57
2019-05-28T06:43:02.320Z,7.40
2019-05-28T06:45:31.589Z,10.23
2019-05-28T06:48:00.660Z,7.80
2019-05-28T06:50:29.959Z,10.60
2019-05-28T06:52:59.269Z,12.63
2019-05-28T06:55:28.477Z,11.48
2019-05-28T06:57:57.637Z,13.43
2019-05-28T07:00:26.821Z,16.90
2019-05-28T07:02:56.161Z,13.97
2019-05-28T07:05:25.457Z,7.50
2019-05-28T07:07:54.686Z,6.03
2019-05-28T07:10:23.893Z,4.40
2019-05-28T07:12:53.141Z,4.50
2019-05-28T07:15:22.443Z,4.75
2019-05-28T07:17:51.648Z,5.00
2019-05-28T07:20:20.803Z,4.20
2019-05-28T07:22:50.147Z,3.92
2019-05-28T07:25:19.365Z,3.95
2019-05-28T07:27:48.574Z,3.92
2019-05-28T07:30:17.918Z,3.35
2019-05-28T07:32:47.289Z,4.40
2019-05-28T07:35:16.536Z,3.80
2019-05-28T07:37:45.739Z,4.60
2019-05-28T07:40:30.407Z,3.83
2019-05-28T07:42:46.036Z,5.00
2019-05-28T07:45:16.003Z,4.30
2019-05-28T07:47:45.313Z,4.72
2019-05-28T07:50:14.706Z,2.75
2019-05-28T07:52:43.946Z,2.70
2019-05-28T07:55:13.257Z,2.37
2019-05-28T07:57:42.531Z,2.90
2019-05-28T08:00:12.093Z,2.80
2019-05-28T08:02:41.485Z,3.12
2019-05-28T08:05:10.854Z,2.60
2019-05-28T08:07:40.385Z,2.80
2019-05-28T08:10:09.666Z,2.10
2019-05-28T08:12:39.406Z,2.05
2019-05-28T08:15:09.033Z,1.55
2019-05-28T08:17:38.249Z,1.80
2019-05-28T08:20:07.519Z,2.30
2019-05-28T08:22:42.304Z,1.75
2019-05-28T08:25:23.589Z,2.15
2019-05-28T08:27:38.739Z,1.80
2019-05-28T08:30:08.313Z,2.33
2019-05-28T08:32:37.611Z,2.55
2019-05-28T08:35:06.989Z,2.80
2019-05-28T08:37:36.236Z,2.47
2019-05-28T08:40:06.186Z,2.55
2019-05-28T08:42:35.580Z,2.35
2019-05-28T08:45:05.229Z,3.40
2019-05-28T08:47:34.529Z,3.60
2019-05-28T08:50:04.059Z,2.90
2019-05-28T08:52:33.376Z,2.58
2019-05-28T08:55:02.668Z,2.60
2019-05-28T08:57:31.900Z,2.20
2019-05-28T09:00:01.285Z,3.27
2019-05-28T09:02:30.657Z,3.25
2019-05-28T09:04:59.914Z,3.05
2019-05-28T09:07:29.177Z,3.15
2019-05-28T09:09:58.469Z,3.42
2019-05-28T09:12:27.702Z,3.77
2019-05-28T09:14:57.002Z,4.30
2019-05-28T09:17:26.262Z,2.95
2019-05-28T09:19:55.496Z,3.30
2019-05-28T09:22:26.039Z,3.27
2019-05-28T09:24:55.599Z,3.92
2019-05-28T09:27:24.928Z,3.10
2019-05-28T09:29:55.483Z,3.62
2019-05-28T09:32:24.946Z,3.58
2019-05-28T09:34:54.257Z,4.00
2019-05-28T09:37:23.456Z,4.78
2019-05-28T09:39:52.783Z,2.92
2019-05-28T09:42:22.045Z,2.43
2019-05-28T09:44:51.335Z,2.30
2019-05-28T09:47:20.661Z,2.60
2019-05-28T09:49:49.901Z,2.80
2019-05-28T09:52:19.151Z,2.63
2019-05-28T09:54:48.428Z,2.87
2019-05-28T09:57:17.756Z,2.90
2019-05-28T09:59:47.062Z,2.10
2019-05-28T10:02:16.717Z,2.30
2019-05-28T10:04:49.891Z,2.60
2019-05-28T10:07:17.268Z,2.33
2019-05-28T10:09:46.640Z,2.73
2019-05-28T10:12:16.009Z,3.20
2019-05-28T10:14:45.360Z,1.93
2019-05-28T10:17:15.994Z,2.23
2019-05-28T10:19:45.402Z,1.87
2019-05-28T10:22:14.648Z,1.70
2019-05-28T10:24:44.240Z,1.63
2019-05-28T10:27:13.596Z,1.73
2019-05-28T10:29:43.013Z,1.70
2019-05-28T10:32:14.970Z,1.77
2019-05-28T10:35:02.683Z,1.80
2019-05-28T10:37:18.677Z,2.00
2019-05-28T10:39:48.072Z,2.20
2019-05-28T10:42:17.681Z,1.97
2019-05-28T10:44:50.195Z,1.90
2019-05-28T10:47:23.274Z,1.80
2019-05-28T10:49:55.969Z,2.00
2019-05-28T10:52:27.390Z,2.00
2019-05-28T10:54:56.551Z,1.60
2019-05-28T10:57:25.842Z,1.77
2019-05-28T10:59:55.081Z,2.03
2019-05-28T11:02:24.548Z,1.77
2019-05-28T11:04:54.155Z,1.60
2019-05-28T11:07:23.369Z,1.70
2019-05-28T11:09:52.569Z,1.40
2019-05-28T11:12:22.080Z,1.70
2019-05-28T11:14:51.504Z,1.70
2019-05-28T11:17:21.005Z,1.10
2019-05-28T11:19:50.349Z,0.83
2019-05-28T11:22:22.570Z,0.90
2019-05-28T11:24:52.180Z,1.00
2019-05-28T11:27:24.028Z,1.00
2019-05-28T11:29:52.413Z,1.37
2019-05-28T11:32:21.612Z,1.00
2019-05-28T11:34:50.795Z,1.00
2019-05-28T11:37:20.116Z,1.03
2019-05-28T11:39:49.418Z,1.47
2019-05-28T11:42:18.696Z,1.30
2019-05-28T11:44:47.998Z,1.20
2019-05-28T11:47:17.525Z,1.20
2019-05-28T11:49:46.876Z,1.07
2019-05-28T11:52:16.183Z,1.00
2019-05-28T11:54:45.427Z,1.20
2019-05-28T11:57:14.781Z,1.03
2019-05-28T11:59:44.020Z,1.00
2019-05-28T12:02:13.278Z,1.20
2019-05-28T12:04:44.897Z,1.40
2019-05-28T12:07:25.613Z,1.50
2019-05-28T12:09:45.335Z,1.50
2019-05-28T12:12:14.942Z,1.47
2019-05-28T12:14:44.184Z,2.03
2019-05-28T12:17:13.559Z,1.60
2019-05-28T12:19:43.107Z,1.30
2019-05-28T12:22:12.509Z,1.70
2019-05-28T12:24:42.226Z,1.60
2019-05-28T12:27:11.657Z,1.83
2019-05-28T12:29:51.612Z,1.73
2019-05-28T12:32:13.588Z,2.30
2019-05-28T12:34:43.332Z,2.60
2019-05-28T12:37:12.716Z,2.03
2019-05-28T12:39:41.888Z,1.57
2019-05-28T12:42:11.277Z,2.20
2019-05-28T12:44:42.483Z,1.60
2019-05-28T12:47:14.571Z,1.90
2019-05-28T12:49:42.824Z,1.70
2019-05-28T12:52:13.304Z,2.10
2019-05-28T12:54:42.571Z,1.70
2019-05-28T12:57:11.792Z,2.17
2019-05-28T12:59:41.048Z,2.10
2019-05-28T13:02:10.303Z,1.80
2019-05-28T13:04:39.626Z,2.23
2019-05-28T13:07:08.990Z,2.00
2019-05-28T13:09:38.265Z,1.70
2019-05-28T13:12:07.507Z,1.77
2019-05-28T13:14:36.794Z,1.50
2019-05-28T13:17:06.083Z,1.40
2019-05-28T13:19:35.296Z,1.30
2019-05-28T13:22:04.524Z,1.50
2019-05-28T13:24:33.882Z,1.80
2019-05-28T13:27:17.729Z,1.73
2019-05-28T13:29:34.294Z,1.60
2019-05-28T13:32:08.322Z,1.87
2019-05-28T13:34:37.438Z,2.00
2019-05-28T13:37:07.298Z,2.33
2019-05-28T13:39:36.627Z,3.07
2019-05-28T13:42:06.091Z,3.77
2019-05-28T13:44:35.383Z,2.43
2019-05-28T13:47:04.598Z,2.87
2019-05-28T13:49:33.812Z,2.20
2019-05-28T13:52:11.946Z,2.50
2019-05-28T13:54:34.380Z,1.93
2019-05-28T13:57:03.934Z,1.73
2019-05-28T13:59:33.301Z,1.90
2019-05-28T14:02:05.021Z,2.00
2019-05-28T14:04:34.675Z,2.37
2019-05-28T14:07:04.319Z,2.27
2019-05-28T14:09:33.789Z,2.90
2019-05-28T14:12:03.711Z,2.77
2019-05-28T14:14:33.226Z,3.30
2019-05-28T14:17:02.671Z,3.20
2019-05-28T14:19:31.999Z,2.50
2019-05-28T14:22:04.397Z,2.60
2019-05-28T14:24:32.231Z,2.93
2019-05-28T14:27:01.844Z,3.00
2019-05-28T14:29:31.113Z,3.07
2019-05-28T14:32:00.397Z,3.40
2019-05-28T14:34:30.114Z,3.10
2019-05-28T14:36:59.405Z,2.80
2019-05-28T14:39:41.221Z,3.10
2019-05-28T14:42:04.074Z,2.93
2019-05-28T14:44:33.361Z,2.40
2019-05-28T14:47:02.815Z,3.13
2019-05-28T14:49:32.162Z,2.60
2019-05-28T14:52:01.386Z,2.93
2019-05-28T14:54:30.791Z,2.37
2019-05-28T14:57:00.137Z,2.40
2019-05-28T14:59:29.572Z,2.73
2019-05-28T15:01:58.888Z,2.50
2019-05-28T15:04:28.105Z,2.27
2019-05-28T15:06:57.474Z,1.80
2019-05-28T15:09:27.785Z,2.00
2019-05-28T15:11:57.217Z,2.07
2019-05-28T15:14:26.410Z,1.90
2019-05-28T15:16:55.794Z,2.30
2019-05-28T15:19:25.066Z,1.90
2019-05-28T15:21:54.513Z,1.90
2019-05-28T15:24:24.181Z,1.70
2019-05-28T15:26:56.646Z,1.60
2019-05-28T15:29:26.134Z,1.90
2019-05-28T15:31:55.466Z,1.77
2019-05-28T15:34:24.626Z,1.90
2019-05-28T15:36:56.874Z,2.70
2019-05-28T15:39:39.343Z,2.23
2019-05-28T15:41:57.575Z,2.90
2019-05-28T15:44:27.869Z,3.50
2019-05-28T15:46:57.815Z,3.50
2019-05-28T15:49:27.317Z,3.80
2019-05-28T15:52:07.295Z,4.23
2019-05-28T15:54:27.868Z,4.30
2019-05-28T15:56:57.427Z,5.20
2019-05-28T15:59:26.774Z,5.53
2019-05-28T16:01:59.435Z,5.63
2019-05-28T16:04:28.746Z,6.00
2019-05-28T16:06:58.068Z,8.30
2019-05-28T16:09:27.280Z,8.53
2019-05-28T16:11:56.425Z,8.90
2019-05-28T16:14:25.594Z,9.30
2019-05-28T16:16:54.943Z,8.80
2019-05-28T16:19:25.739Z,7.90
2019-05-28T16:21:55.155Z,8.93
2019-05-28T16:24:24.433Z,8.20
2019-05-28T16:26:53.827Z,9.03
2019-05-28T16:29:23.081Z,10.90
2019-05-28T16:31:52.355Z,9.13
2019-05-28T16:34:21.579Z,9.00
2019-05-28T16:36:51.690Z,9.23
2019-05-28T16:39:20.998Z,8.30
2019-05-28T16:41:50.174Z,7.57
2019-05-28T16:44:19.473Z,9.10
2019-05-28T16:46:48.761Z,10.20
2019-05-28T16:49:19.349Z,9.40
2019-05-28T16:51:48.956Z,8.60
2019-05-28T16:54:19.716Z,8.67
2019-05-28T16:56:49.251Z,9.40
2019-05-28T16:59:21.738Z,9.40
2019-05-28T17:01:51.033Z,8.97
2019-05-28T17:04:20.475Z,9.67
2019-05-28T17:06:49.770Z,9.63
2019-05-28T17:09:19.145Z,10.40
2019-05-28T17:11:48.400Z,10.00
2019-05-28T17:14:17.648Z,9.37
2019-05-28T17:16:46.932Z,9.50
2019-05-28T17:19:16.246Z,8.77
2019-05-28T17:21:45.776Z,8.70
2019-05-28T17:24:15.005Z,8.13
2019-05-28T17:26:44.258Z,6.63
2019-05-28T17:29:13.509Z,8.13
2019-05-28T17:31:42.736Z,6.00
2019-05-28T17:34:13.123Z,6.20
2019-05-28T17:36:42.447Z,6.50
2019-05-28T17:39:11.725Z,6.30
2019-05-28T17:41:40.920Z,5.70
2019-05-28T17:44:10.086Z,8.40
2019-05-28T17:46:39.347Z,7.40
2019-05-28T17:49:08.679Z,7.00
2019-05-28T17:51:38.052Z,8.30
2019-05-28T17:54:07.459Z,7.30
2019-05-28T17:56:36.754Z,7.60
2019-05-28T17:59:06.053Z,6.83
2019-05-28T18:01:35.357Z,6.60
2019-05-28T18:04:04.661Z,6.50
2019-05-28T18:06:33.961Z,7.60
2019-05-28T18:09:03.204Z,7.23
2019-05-28T18:11:32.461Z,7.87
2019-05-28T18:14:02.028Z,7.80
2019-05-28T18:16:31.275Z,7.73
2019-05-28T18:19:01.031Z,8.00
2019-05-28T18:21:30.448Z,8.70
2019-05-28T18:23:59.656Z,7.70
2019-05-28T18:26:28.886Z,8.80
2019-05-28T18:28:58.112Z,8.60
2019-05-28T18:31:27.388Z,9.20
2019-05-28T18:33:56.561Z,9.80
2019-05-28T18:36:25.967Z,10.40
2019-05-28T18:38:55.201Z,9.87
2019-05-28T18:41:24.485Z,8.17
2019-05-28T18:43:53.788Z,7.90
2019-05-28T18:46:22.977Z,8.80
2019-05-28T18:48:52.269Z,8.10
2019-05-28T18:51:21.689Z,6.50
2019-05-28T18:53:51.088Z,6.77
2019-05-28T18:56:20.280Z,6.27
2019-05-28T18:58:49.603Z,7.17
2019-05-28T19:01:18.766Z,6.60
2019-05-28T19:03:48.062Z,5.53
2019-05-28T19:06:18.414Z,5.63
2019-05-28T19:08:47.631Z,5.40
2019-05-28T19:11:16.948Z,4.70
2019-05-28T19:13:46.098Z,5.70
2019-05-28T19:16:15.416Z,5.40
2019-05-28T19:18:44.589Z,5.27
2019-05-28T19:21:13.902Z,4.60
2019-05-28T19:23:43.161Z,6.20
2019-05-28T19:26:12.565Z,6.67
2019-05-28T19:28:41.949Z,7.70
2019-05-28T19:31:11.268Z,7.07
2019-05-28T19:33:40.649Z,6.70
2019-05-28T19:36:11.604Z,5.53
2019-05-28T19:38:45.863Z,5.97
2019-05-28T19:41:13.421Z,5.83
2019-05-28T19:43:42.626Z,5.37
2019-05-28T19:46:11.926Z,5.20
2019-05-28T19:48:41.157Z,6.00
2019-05-28T19:51:10.481Z,6.30
2019-05-28T19:53:39.812Z,6.40
2019-05-28T19:56:09.018Z,8.20
2019-05-28T19:58:38.240Z,6.47
2019-05-28T20:01:07.490Z,6.87
2019-05-28T20:03:36.712Z,7.27
2019-05-28T20:06:06.034Z,8.60
2019-05-28T20:08:35.558Z,8.07
2019-05-28T20:11:05.049Z,8.80
2019-05-28T20:13:34.263Z,9.03
2019-05-28T20:16:03.471Z,9.17
2019-05-28T20:18:32.705Z,9.67
2019-05-28T20:21:02.118Z,10.83
2019-05-28T20:23:31.456Z,12.53
2019-05-28T20:26:00.636Z,10.77
2019-05-28T20:28:32.690Z,11.80
2019-05-28T20:31:02.000Z,14.30
2019-05-28T20:33:31.150Z,14.37
2019-05-28T20:36:01.818Z,13.43
2019-05-28T20:38:31.328Z,14.23
2019-05-28T20:41:01.912Z,14.00
2019-05-28T20:43:31.497Z,13.70
2019-05-28T20:46:00.767Z,16.10
2019-05-28T20:48:29.982Z,14.40
2019-05-28T20:51:07.365Z,14.27
2019-05-28T20:53:36.028Z,13.20
2019-05-28T20:56:01.034Z,15.13
2019-05-28T20:58:39.769Z,15.93
2019-05-28T21:01:01.197Z,17.47
2019-05-28T21:03:30.479Z,17.87
2019-05-28T21:05:59.836Z,17.10
2019-05-28T21:08:29.107Z,17.93
2019-05-28T21:10:58.874Z,17.87
2019-05-28T21:13:28.292Z,19.50
2019-05-28T21:15:57.511Z,20.05
2019-05-28T21:18:26.780Z,18.90
2019-05-28T21:20:56.171Z,19.50
2019-05-28T21:23:25.523Z,20.32
2019-05-28T21:25:55.889Z,21.37
2019-05-28T21:28:26.045Z,19.13
2019-05-28T21:30:56.665Z,20.92
2019-05-28T21:33:26.304Z,21.47
2019-05-28T21:35:55.611Z,20.23
2019-05-28T21:38:24.892Z,21.42
2019-05-28T21:40:55.474Z,21.17
2019-05-28T21:43:24.892Z,21.60
2019-05-28T21:45:54.020Z,21.27
2019-05-28T21:48:23.309Z,21.10
2019-05-28T21:50:52.633Z,23.77
2019-05-28T21:53:21.800Z,21.65
2019-05-28T21:55:50.987Z,20.62
2019-05-28T21:58:20.225Z,20.88
2019-05-28T22:00:58.410Z,21.23
2019-05-28T22:03:27.832Z,20.92
2019-05-28T22:05:57.321Z,22.15
2019-05-28T22:08:26.616Z,22.67
2019-05-28T22:10:55.940Z,23.65
2019-05-28T22:13:25.105Z,34.85
2019-05-28T22:15:54.480Z,25.27
2019-05-28T22:18:23.812Z,25.17
2019-05-28T22:20:53.112Z,23.62
2019-05-28T22:23:22.528Z,23.05
2019-05-28T22:25:51.715Z,25.15
2019-05-28T22:28:20.950Z,23.55
2019-05-28T22:30:50.242Z,40.23
2019-05-28T22:33:19.493Z,27.62
2019-05-28T22:35:48.708Z,23.27
2019-05-28T22:38:19.077Z,25.05
2019-05-28T22:40:48.269Z,22.70
2019-05-28T22:43:30.838Z,22.05
2019-05-28T22:45:48.584Z,23.32
2019-05-28T22:48:18.283Z,23.87
2019-05-28T22:50:50.412Z,26.25
2019-05-28T22:53:19.647Z,24.70
2019-05-28T22:55:48.874Z,24.90
2019-05-28T22:58:18.115Z,26.55
2019-05-28T23:00:47.347Z,24.92
2019-05-28T23:03:16.647Z,25.10
2019-05-28T23:05:45.873Z,24.40
2019-05-28T23:08:15.041Z,24.47
2019-05-28T23:10:44.264Z,25.65
2019-05-28T23:13:13.489Z,25.05
2019-05-28T23:15:42.630Z,25.00
2019-05-28T23:18:12.002Z,24.23
2019-05-28T23:20:41.281Z,23.00
2019-05-28T23:23:11.427Z,22.60
2019-05-28T23:25:40.819Z,19.73
2019-05-28T23:28:10.084Z,18.27
2019-05-28T23:30:39.296Z,17.67
2019-05-28T23:33:10.435Z,15.95
2019-05-28T23:35:39.548Z,14.75
2019-05-28T23:38:09.112Z,14.43
2019-05-28T23:40:39.352Z,11.73
2019-05-28T23:43:09.511Z,12.40
2019-05-28T23:45:38.890Z,11.68
2019-05-28T23:48:13.350Z,12.13
2019-05-28T23:50:39.223Z,11.78
2019-05-28T23:53:11.729Z,10.32
2019-05-28T23:55:41.733Z,10.20
2019-05-28T23:58:11.953Z,10.90
